Time;durP1;ratioP1;P1;durP2;ratioP2;P2;SDS_P1;SDS_P2;PMS_P1;PMS_P2;Temp;Humidity;BMP_temperature;BMP_pressure;BME280_temperature;BME280_humidity;BME280_pressure;Samples;Min_cycle;Max_cycle;Signal;HPM_P1;HPM_P2
2022/10/19 00:01:25;;;;;;;14.07;7.70;;;;;;;7.17;100.00;102694.13;6280086;22;20015;-91
2022/10/19 00:03:52;;;;;;;10.05;7.13;;;;;;;7.18;100.00;102698.53;6278676;22;20430;-91
2022/10/19 00:06:24;;;;;;;15.43;6.78;;;;;;;7.22;100.00;102694.97;6278117;22;20034;-91
2022/10/19 00:09:00;;;;;;;11.27;6.90;;;;;;;7.15;100.00;102682.69;6274442;22;20026;-92
2022/10/19 00:11:27;;;;;;;14.50;7.38;;;;;;;7.17;100.00;102688.84;6271534;22;20442;-91
2022/10/19 00:13:53;;;;;;;13.63;7.95;;;;;;;7.16;100.00;102687.09;6277037;22;19999;-92
2022/10/19 00:16:19;;;;;;;11.80;7.70;;;;;;;7.14;100.00;102684.44;6274340;22;20004;-91
2022/10/19 00:18:45;;;;;;;14.77;6.90;;;;;;;7.05;100.00;102673.91;6276296;22;20387;-92
2022/10/19 00:21:13;;;;;;;13.88;7.57;;;;;;;7.10;100.00;102687.09;6277068;22;20031;-91
2022/10/19 00:23:38;;;;;;;14.20;7.57;;;;;;;7.04;100.00;102684.53;6278924;22;20003;-91
2022/10/19 00:26:03;;;;;;;9.07;6.90;;;;;;;7.03;100.00;102681.00;6280058;22;20057;-92
2022/10/19 00:28:29;;;;;;;12.75;7.28;;;;;;;6.97;100.00;102675.72;6278682;22;20019;-91
2022/10/19 00:30:55;;;;;;;13.25;7.13;;;;;;;6.98;100.00;102677.47;6284130;22;20003;-93
2022/10/19 00:33:21;;;;;;;12.07;7.13;;;;;;;6.93;100.00;102680.16;6288643;22;19988;-92
2022/10/19 00:35:51;;;;;;;11.55;6.82;;;;;;;6.92;100.00;102670.47;6284854;22;20094;-91
2022/10/19 00:38:18;;;;;;;11.88;7.05;;;;;;;6.89;100.00;102678.41;6282990;22;20050;-91
2022/10/19 00:40:44;;;;;;;13.85;7.00;;;;;;;6.81;100.00;102661.69;6285138;22;20011;-92
2022/10/19 00:43:18;;;;;;;11.27;7.13;;;;;;;6.84;100.00;102669.63;6291085;22;20010;-91
2022/10/19 00:45:44;;;;;;;15.63;8.25;;;;;;;6.83;100.00;102662.59;6286887;22;20022;-90
2022/10/19 00:48:13;;;;;;;16.58;7.90;;;;;;;6.85;100.00;102674.03;6281929;22;20011;-92
2022/10/19 00:50:39;;;;;;;14.40;7.75;;;;;;;6.80;100.00;102675.84;6280126;22;20006;-91
2022/10/19 00:53:05;;;;;;;11.85;7.03;;;;;;;6.78;100.00;102674.97;6279003;22;20063;-91
2022/10/19 00:55:31;;;;;;;19.60;8.13;;;;;;;6.82;100.00;102676.72;6279705;22;20014;-91
2022/10/19 00:57:56;;;;;;;14.88;7.72;;;;;;;6.82;100.00;102676.72;6278190;22;20019;-92
2022/10/19 01:00:22;;;;;;;12.52;7.68;;;;;;;6.77;100.00;102678.50;6277693;22;20011;-91
2022/10/19 01:02:47;;;;;;;16.90;7.90;;;;;;;6.74;100.00;102670.59;6278498;22;20004;-91
2022/10/19 01:05:13;;;;;;;15.73;7.57;;;;;;;6.79;100.00;102682.03;6277968;22;19996;-92
2022/10/19 01:07:39;;;;;;;13.18;7.00;;;;;;;6.70;100.00;102669.72;6277709;22;20000;-92
2022/10/19 01:10:05;;;;;;;14.85;8.18;;;;;;;6.71;100.00;102668.81;6274427;22;20011;-92
2022/10/19 01:12:54;;;;;;;14.45;7.35;;;;;;;6.72;100.00;102664.41;6274118;22;20003;-93
2022/10/19 01:16:05;;;;;;;14.20;8.07;;;;;;;6.71;100.00;102666.19;6275632;22;20011;-91
2022/10/19 01:18:49;;;;;;;17.30;7.68;;;;;;;6.67;100.00;102666.22;6230525;22;20099;-92
2022/10/19 01:21:22;;;;;;;15.65;7.68;;;;;;;6.68;100.00;102665.31;6275280;22;20004;-91
2022/10/19 01:24:06;;;;;;;14.52;8.75;;;;;;;6.65;100.00;102671.53;6273569;22;20035;-92
2022/10/19 01:26:59;;;;;;;14.77;7.97;;;;;;;6.65;100.00;102668.88;6275001;22;20004;-91
2022/10/19 01:29:37;;;;;;;11.40;8.18;;;;;;;6.61;100.00;102669.78;6273760;22;20039;-93
2022/10/19 01:32:22;;;;;;;15.05;7.90;;;;;;;6.59;100.00;102670.66;6272938;22;20004;-93
2022/10/19 01:35:21;;;;;;;15.93;7.50;;;;;;;6.53;100.00;102662.78;6274062;22;20004;-92
2022/10/19 01:37:57;;;;;;;17.17;7.68;;;;;;;6.54;100.00;102669.81;6271820;22;20369;-92
2022/10/19 01:40:29;;;;;;;14.18;8.23;;;;;;;6.51;100.00;102662.75;6273067;22;20014;-92
2022/10/19 01:43:21;;;;;;;14.73;8.00;;;;;;;6.52;100.00;102668.94;6274689;22;20009;-91
2022/10/19 01:46:07;;;;;;;15.75;8.25;;;;;;;6.43;100.00;102661.91;6271969;22;20065;-91
2022/10/19 01:48:37;;;;;;;17.25;8.85;;;;;;;6.42;100.00;102668.97;6271093;22;20029;-92
2022/10/19 01:51:06;;;;;;;15.20;8.20;;;;;;;6.40;100.00;102662.81;6271710;22;20412;-92
2022/10/19 01:53:38;;;;;;;16.73;8.48;;;;;;;6.42;100.00;102665.44;6272610;22;20447;-93
2022/10/19 01:56:05;;;;;;;16.25;8.85;;;;;;;6.40;100.00;102665.47;6270721;22;20008;-90
2022/10/19 01:58:34;;;;;;;15.23;8.88;;;;;;;6.36;100.00;102658.44;6270441;22;20019;-92
2022/10/19 02:01:04;;;;;;;18.17;9.02;;;;;;;6.35;100.00;102655.78;6271717;22;20065;-92
2022/10/19 02:03:30;;;;;;;15.13;9.73;;;;;;;6.31;100.00;102651.38;6271321;22;20447;-93
2022/10/19 02:05:57;;;;;;;18.42;9.50;;;;;;;6.33;100.00;102649.63;6274363;22;20011;-92
2022/10/19 02:08:29;;;;;;;15.27;9.77;;;;;;;6.32;100.00;102643.47;6272619;22;20312;-93
2022/10/19 02:10:56;;;;;;;20.63;10.63;;;;;;;6.28;100.00;102636.44;6276767;22;20020;-92
2022/10/19 02:13:25;;;;;;;19.52;9.93;;;;;;;6.30;100.00;102628.47;6277614;22;20342;-92
2022/10/19 02:15:53;;;;;;;17.95;10.23;;;;;;;6.33;100.00;102634.63;6285316;22;20004;-93
2022/10/19 02:18:25;;;;;;;17.92;10.23;;;;;;;6.27;100.00;102623.19;6291349;22;20000;-93
2022/10/19 02:20:50;;;;;;;19.25;11.23;;;;;;;6.30;100.00;102626.72;6295009;22;19996;-93
2022/10/19 02:23:20;;;;;;;15.00;10.07;;;;;;;6.27;100.00;102628.50;6294322;22;20051;-92
2022/10/19 02:25:45;;;;;;;17.10;10.60;;;;;;;6.29;100.00;102621.44;6291966;22;20033;-93
2022/10/19 02:28:11;;;;;;;14.82;9.65;;;;;;;6.18;100.00;102622.34;6293089;22;20007;-91
2022/10/19 02:30:36;;;;;;;15.43;10.10;;;;;;;6.16;100.00;102618.84;6296358;22;19995;-92
2022/10/19 02:33:02;;;;;;;18.80;9.98;;;;;;;6.10;100.00;102612.69;6286595;22;20006;-93
2022/10/19 02:35:27;;;;;;;19.25;10.05;;;;;;;6.14;100.00;102619.72;6278135;22;20430;-93
2022/10/19 02:37:54;;;;;;;22.40;11.15;;;;;;;6.07;100.00;102610.09;6280137;22;20094;-92
2022/10/19 02:40:20;;;;;;;15.43;9.90;;;;;;;6.04;100.00;102610.97;6279564;22;20062;-92
2022/10/19 02:42:58;;;;;;;14.38;9.80;;;;;;;6.03;100.00;102608.34;6280017;22;20011;-91
2022/10/19 02:45:58;;;;;;;16.42;9.38;;;;;;;5.99;100.00;102608.34;6277276;22;20003;-92
2022/10/19 02:48:26;;;;;;;14.73;9.35;;;;;;;5.94;100.00;102615.41;6254361;22;20011;-93
2022/10/19 02:50:52;;;;;;;15.98;9.88;;;;;;;5.85;100.00;102596.00;6275964;22;20007;-93
2022/10/19 02:53:17;;;;;;;17.65;10.05;;;;;;;5.73;100.00;102589.91;6274971;22;20083;-93
2022/10/19 02:55:44;;;;;;;17.27;9.80;;;;;;;5.83;100.00;102601.31;6275806;22;20000;-93
2022/10/19 02:58:09;;;;;;;15.07;10.02;;;;;;;5.82;100.00;102590.75;6272658;22;20426;-93
2022/10/19 03:00:35;;;;;;;14.57;8.10;;;;;;;5.67;100.00;102596.94;6276246;22;20003;-92
2022/10/19 03:03:01;;;;;;;15.02;9.25;;;;;;;5.70;100.00;102596.94;6276097;22;20445;-93
2022/10/19 03:05:27;;;;;;;14.50;8.57;;;;;;;5.63;100.00;102604.00;6276576;22;20007;-93
2022/10/19 03:07:52;;;;;;;16.90;9.88;;;;;;;5.65;100.00;102604.03;6273963;22;20354;-93
2022/10/19 03:10:17;;;;;;;17.38;9.88;;;;;;;5.67;100.00;102608.41;6275443;22;20008;-92
2022/10/19 03:12:43;;;;;;;17.13;10.40;;;;;;;5.67;100.00;102604.88;6272300;22;20433;-92
2022/10/19 03:15:13;;;;;;;16.67;9.95;;;;;;;5.59;100.00;102596.09;6274059;22;19996;-93
2022/10/19 03:17:38;;;;;;;16.13;9.95;;;;;;;5.61;100.00;102602.28;6273812;22;20061;-92
2022/10/19 03:20:04;;;;;;;16.58;10.18;;;;;;;5.59;100.00;102596.97;6275671;22;20491;-93
2022/10/19 03:22:29;;;;;;;15.25;9.75;;;;;;;5.60;100.00;102600.47;6274454;22;20003;-92
2022/10/19 03:24:55;;;;;;;14.05;10.15;;;;;;;5.58;100.00;102596.97;6277645;22;20088;-93
2022/10/19 03:27:20;;;;;;;16.92;10.00;;;;;;;5.55;100.00;102604.91;6297172;22;20042;-93
2022/10/19 03:29:45;;;;;;;16.50;9.05;;;;;;;5.47;100.00;102608.44;6295800;22;20015;-92
2022/10/19 03:32:11;;;;;;;15.15;9.65;;;;;;;5.50;100.00;102602.28;6295030;22;19996;-92
2022/10/19 03:34:36;;;;;;;19.05;10.15;;;;;;;5.45;100.00;102589.09;6297133;22;19999;-93
2022/10/19 03:37:01;;;;;;;15.95;10.07;;;;;;;5.43;100.00;102596.16;6290691;22;20034;-92
2022/10/19 03:39:26;;;;;;;13.70;10.15;;;;;;;5.46;100.00;102601.41;6280982;22;20016;-93
2022/10/19 03:41:52;;;;;;;15.07;10.63;;;;;;;5.35;100.00;102602.28;6280709;22;20321;-92
2022/10/19 03:44:17;;;;;;;13.02;9.55;;;;;;;5.36;100.00;102599.66;6274098;22;20027;-93
2022/10/19 03:46:42;;;;;;;14.35;10.10;;;;;;;5.33;100.00;102597.03;6277137;22;20007;-92
2022/10/19 03:49:12;;;;;;;13.52;9.35;;;;;;;5.32;100.00;102602.31;6276349;22;20186;-92
2022/10/19 03:51:37;;;;;;;12.13;9.23;;;;;;;5.30;100.00;102604.94;6277243;22;20003;-93
2022/10/19 03:54:06;;;;;;;13.45;9.02;;;;;;;5.31;100.00;102604.06;6280806;22;20023;-92
2022/10/19 03:56:33;;;;;;;12.23;9.07;;;;;;;5.27;100.00;102604.97;6278647;22;19999;-93
2022/10/19 03:59:00;;;;;;;14.85;8.93;;;;;;;5.24;100.00;102597.91;6276728;22;20022;-93
2022/10/19 04:01:27;;;;;;;11.73;9.63;;;;;;;5.28;100.00;102603.19;6279013;22;20093;-93
2022/10/19 04:03:54;;;;;;;10.75;8.02;;;;;;;5.08;100.00;102613.75;6279460;22;20441;-93
2022/10/19 04:06:23;;;;;;;12.95;9.55;;;;;;;5.12;100.00;102599.69;6278664;22;20008;-94
2022/10/19 04:08:49;;;;;;;12.48;9.77;;;;;;;5.15;100.00;102610.25;6278379;22;19998;-91
2022/10/19 04:11:16;;;;;;;14.65;10.75;;;;;;;5.14;100.00;102609.38;6280587;22;20027;-92
2022/10/19 04:13:41;;;;;;;18.45;10.32;;;;;;;5.06;100.00;102612.84;6276143;22;20003;-92
2022/10/19 04:16:06;;;;;;;15.85;10.68;;;;;;;5.06;100.00;102599.66;6273465;22;20433;-92
2022/10/19 04:18:32;;;;;;;14.55;10.00;;;;;;;5.05;100.00;102601.41;6271542;22;20007;-93
2022/10/19 04:21:00;;;;;;;15.30;11.00;;;;;;;5.08;100.00;102596.16;6275681;22;20008;-93
2022/10/19 04:23:28;;;;;;;15.50;10.65;;;;;;;5.10;100.00;102602.31;6271163;22;19987;-94
2022/10/19 04:26:06;;;;;;;13.98;10.43;;;;;;;5.03;100.00;102586.50;6271335;22;20454;-93
2022/10/19 04:28:32;;;;;;;15.88;11.63;;;;;;;5.07;100.00;102594.41;6272601;22;20011;-93
2022/10/19 04:31:01;;;;;;;17.00;11.45;;;;;;;5.05;100.00;102596.16;6271578;22;20027;-93
2022/10/19 04:33:26;;;;;;;13.23;10.98;;;;;;;5.00;100.00;102587.34;6269250;22;20030;-93
2022/10/19 04:35:58;;;;;;;13.50;10.98;;;;;;;5.08;100.00;102600.56;6270364;22;20055;-93
2022/10/19 04:38:23;;;;;;;19.95;11.70;;;;;;;5.06;100.00;102597.94;6270392;22;20014;-92
2022/10/19 04:40:48;;;;;;;16.80;10.15;;;;;;;4.95;100.00;102591.75;6270939;22;20007;-91
2022/10/19 04:43:13;;;;;;;14.48;10.75;;;;;;;4.97;100.00;102598.81;6269659;22;20058;-93
2022/10/19 04:45:39;;;;;;;15.80;10.63;;;;;;;4.92;100.00;102597.03;6272039;22;20383;-93
2022/10/19 04:48:04;;;;;;;13.82;9.45;;;;;;;4.82;100.00;102598.78;6273262;22;20054;-93
2022/10/19 04:50:29;;;;;;;14.88;10.40;;;;;;;4.78;100.00;102580.31;6278629;22;20456;-93
2022/10/19 04:52:55;;;;;;;17.77;11.98;;;;;;;4.88;100.00;102585.59;6278919;22;20004;-92
2022/10/19 04:55:20;;;;;;;17.85;10.57;;;;;;;4.81;100.00;102588.22;6283388;22;20055;-92
2022/10/19 04:57:45;;;;;;;18.48;11.43;;;;;;;4.86;100.00;102589.13;6291055;22;20607;-92
2022/10/19 05:00:11;;;;;;;21.73;12.88;;;;;;;4.84;100.00;102588.22;6294109;22;20004;-92
2022/10/19 05:02:41;;;;;;;21.38;12.55;;;;;;;4.88;100.00;102593.50;6292172;22;20037;-93
2022/10/19 05:05:07;;;;;;;19.35;13.65;;;;;;;4.86;100.00;102590.00;6293238;22;20059;-91
2022/10/19 05:07:32;;;;;;;24.88;14.45;;;;;;;4.90;100.00;102589.13;6295892;22;20006;-93
2022/10/19 05:09:58;;;;;;;20.42;14.27;;;;;;;4.92;100.00;102584.72;6296453;22;20000;-92
2022/10/19 05:12:23;;;;;;;18.02;13.40;;;;;;;4.84;100.00;102586.47;6289170;22;20023;-92
2022/10/19 05:14:48;;;;;;;20.92;13.02;;;;;;;4.86;100.00;102582.09;6278160;22;20003;-93
2022/10/19 05:17:13;;;;;;;20.48;12.63;;;;;;;4.82;100.00;102582.09;6280082;22;20076;-93
2022/10/19 05:19:39;;;;;;;19.48;13.05;;;;;;;4.80;100.00;102587.34;6278911;22;20018;-94
2022/10/19 05:22:04;;;;;;;19.55;12.77;;;;;;;4.72;100.00;102576.81;6278478;22;19996;-92
2022/10/19 05:24:31;;;;;;;23.35;12.60;;;;;;;4.73;100.00;102585.59;6278950;22;20012;-92
2022/10/19 05:26:56;;;;;;;17.40;11.45;;;;;;;4.69;100.00;102591.75;6276232;22;20053;-92
2022/10/19 05:29:23;;;;;;;16.58;11.93;;;;;;;4.69;100.00;102581.19;6276611;22;20031;-92
2022/10/19 05:31:48;;;;;;;16.50;11.68;;;;;;;4.67;100.00;102578.53;6276584;22;20011;-93
2022/10/19 05:34:13;;;;;;;18.90;12.45;;;;;;;4.63;100.00;102557.44;6275620;22;20425;-92
2022/10/19 05:36:39;;;;;;;15.35;11.55;;;;;;;4.70;100.00;102567.13;6274323;22;20011;-93
2022/10/19 05:39:07;;;;;;;21.98;12.55;;;;;;;4.65;100.00;102563.59;6274273;22;20059;-91
2022/10/19 05:41:32;;;;;;;18.38;12.43;;;;;;;4.72;100.00;102554.78;6275078;22;20003;-92
2022/10/19 05:43:59;;;;;;;23.10;13.88;;;;;;;4.75;100.00;102565.34;6274537;22;20007;-92
2022/10/19 05:46:27;;;;;;;21.63;15.00;;;;;;;4.78;100.00;102562.72;6275144;22;20019;-92
2022/10/19 05:48:54;;;;;;;19.05;12.88;;;;;;;4.73;100.00;102554.81;6272983;22;20045;-93
2022/10/19 05:51:21;;;;;;;18.80;12.63;;;;;;;4.67;100.00;102570.63;6273067;22;20505;-93
2022/10/19 05:53:47;;;;;;;21.75;13.77;;;;;;;4.70;100.00;102570.63;6273598;22;20004;-93
2022/10/19 05:56:15;;;;;;;21.50;13.27;;;;;;;4.73;100.00;102569.75;6272919;22;20026;-91
2022/10/19 05:58:40;;;;;;;23.08;15.02;;;;;;;4.74;100.00;102560.97;6272111;22;20042;-92
2022/10/19 06:01:07;;;;;;;24.38;14.68;;;;;;;4.81;100.00;102560.09;6273996;22;20003;-92
2022/10/19 06:03:32;;;;;;;25.73;15.02;;;;;;;4.72;100.00;102542.50;6275459;22;20004;-91
2022/10/19 06:05:57;;;;;;;24.77;15.48;;;;;;;4.80;100.00;102555.69;6272158;22;20010;-92
2022/10/19 06:08:24;;;;;;;22.85;15.20;;;;;;;4.81;100.00;102552.19;6274771;22;20015;-92
2022/10/19 06:10:50;;;;;;;19.50;14.20;;;;;;;4.73;100.00;102543.38;6274570;22;20022;-92
2022/10/19 06:13:17;;;;;;;24.05;14.35;;;;;;;4.75;100.00;102555.69;6284170;22;19999;-92
2022/10/19 06:15:43;;;;;;;21.05;14.77;;;;;;;4.78;100.00;102546.91;6297442;22;20003;-92
2022/10/19 06:18:10;;;;;;;21.10;14.50;;;;;;;4.83;100.00;102550.41;6293805;22;20047;-92
2022/10/19 06:20:40;;;;;;;23.95;15.30;;;;;;;4.85;100.00;102548.66;6293382;22;20010;-93
2022/10/19 06:23:07;;;;;;;28.48;17.42;;;;;;;4.92;100.00;102541.63;6288571;22;20003;-93
2022/10/19 06:25:34;;;;;;;27.23;17.02;;;;;;;4.89;100.00;102546.88;6280341;22;20012;-93
2022/10/19 06:27:59;;;;;;;39.22;16.02;;;;;;;4.82;100.00;102555.69;6277418;22;19980;-93
2022/10/19 06:30:25;;;;;;;29.15;15.27;;;;;;;4.86;100.00;102554.81;6278872;22;20264;-94
2022/10/19 06:32:50;;;;;;;27.05;17.17;;;;;;;4.97;100.00;102556.59;6277243;22;20008;-92
2022/10/19 06:35:16;;;;;;;29.15;18.35;;;;;;;5.03;100.00;102546.91;6276316;22;20044;-93
2022/10/19 06:37:41;;;;;;;27.98;18.50;;;;;;;5.08;100.00;102560.97;6274998;22;20010;-93
2022/10/19 06:40:08;;;;;;;26.33;18.73;;;;;;;5.09;100.00;102562.72;6272758;22;20018;-93
2022/10/19 06:42:33;;;;;;;27.17;18.10;;;;;;;5.14;100.00;102566.22;6275202;22;20483;-94
2022/10/19 06:44:58;;;;;;;27.63;19.48;;;;;;;5.22;100.00;102569.75;6274204;22;20007;-93
2022/10/19 06:47:29;;;;;;;27.23;19.25;;;;;;;5.17;100.00;102567.09;6271167;22;20022;-93
2022/10/19 06:49:55;;;;;;;27.67;19.17;;;;;;;5.22;100.00;102573.28;6274044;22;20059;-93
2022/10/19 06:52:21;;;;;;;27.88;19.20;;;;;;;5.22;100.00;102553.91;6274997;22;20022;-93
2022/10/19 06:54:46;;;;;;;27.27;19.60;;;;;;;5.25;100.00;102552.13;6276088;22;20010;-93
2022/10/19 06:57:11;;;;;;;36.05;19.17;;;;;;;5.32;100.00;102562.72;6274780;22;20003;-93
2022/10/19 06:59:36;;;;;;;34.17;20.63;;;;;;;5.40;100.00;102556.53;6276965;22;20015;-91
2022/10/19 07:02:02;;;;;;;33.88;20.77;;;;;;;5.46;100.00;102559.13;6278471;22;20011;-92
2022/10/19 07:04:28;;;;;;;34.53;21.08;;;;;;;5.54;100.00;102563.53;6274239;22;20038;-93
2022/10/19 07:06:53;;;;;;;28.42;20.45;;;;;;;5.56;100.00;102564.38;6274393;22;20111;-93
2022/10/19 07:09:18;;;;;;;29.38;19.25;;;;;;;5.61;100.00;102560.00;6274914;22;20015;-93
2022/10/19 07:11:44;;;;;;;27.67;19.85;;;;;;;5.62;100.00;102549.41;6276154;22;20003;-94
2022/10/19 07:14:09;;;;;;;34.38;21.48;;;;;;;5.72;100.00;102558.19;6275083;22;20427;-95
2022/10/19 07:16:34;;;;;;;33.00;20.98;;;;;;;5.76;100.00;102557.28;6274435;22;20022;-95
2022/10/19 07:19:00;;;;;;;30.77;19.88;;;;;;;5.75;100.00;102558.19;6276685;22;20082;-94
2022/10/19 07:21:25;;;;;;;33.40;20.58;;;;;;;5.88;100.00;102562.53;6277390;22;20000;-95
2022/10/19 07:23:50;;;;;;;29.23;21.13;;;;;;;5.97;100.00;102559.88;6278638;22;20015;-96
2022/10/19 07:26:20;;;;;;;29.40;19.92;;;;;;;6.03;100.00;102560.75;6279660;22;20046;-96
2022/10/19 07:28:46;;;;;;;36.40;21.17;;;;;;;6.09;100.00;102568.66;6278783;22;19999;-95
2022/10/19 07:31:16;;;;;;;29.98;20.00;;;;;;;6.13;100.00;102565.09;6280110;22;19999;-95
2022/10/19 07:33:42;;;;;;;27.98;19.48;;;;;;;6.13;100.00;102546.59;6292457;22;20003;-95
2022/10/19 07:36:09;;;;;;;25.88;19.58;;;;;;;6.23;100.00;102564.19;6289917;22;20424;-94
2022/10/19 07:38:35;;;;;;;30.80;19.42;;;;;;;6.28;100.00;102570.31;6295665;22;20063;-95
2022/10/19 07:41:02;;;;;;;33.28;19.85;;;;;;;6.38;100.00;102558.78;6294549;22;20029;-94
2022/10/19 07:43:27;;;;;;;28.27;18.75;;;;;;;6.42;100.00;102555.25;6302536;22;20026;-94
2022/10/19 07:46:01;;;;;;;31.63;19.27;;;;;;;6.44;100.00;102542.03;6300969;22;20003;-95
2022/10/19 07:48:26;;;;;;;26.88;18.50;;;;;;;6.54;100.00;102550.75;6298409;22;19999;-94
2022/10/19 07:50:52;;;;;;;29.65;18.10;;;;;;;6.51;100.00;102533.13;6288602;22;20034;-95
2022/10/19 07:53:17;;;;;;;27.25;17.33;;;;;;;6.60;100.00;102537.47;6285773;22;20012;-95
2022/10/19 07:55:42;;;;;;;22.10;16.67;;;;;;;6.71;100.00;102549.75;6278645;22;19988;-95
2022/10/19 07:58:08;;;;;;;26.50;17.15;;;;;;;6.75;100.00;102542.66;6278363;22;20012;-94
2022/10/19 08:00:33;;;;;;;28.27;18.10;;;;;;;6.83;100.00;102543.47;6279421;22;20437;-94
2022/10/19 08:02:58;;;;;;;25.20;16.33;;;;;;;6.85;100.00;102538.16;6280087;22;20004;-94
2022/10/19 08:05:23;;;;;;;25.58;17.30;;;;;;;7.01;100.00;102538.91;6276885;22;20502;-92
2022/10/19 08:07:49;;;;;;;25.20;17.50;;;;;;;7.06;100.00;102531.81;6278920;22;19995;-94
2022/10/19 08:10:14;;;;;;;22.17;15.48;;;;;;;7.09;100.00;102522.06;6278337;22;20520;-94
2022/10/19 08:12:39;;;;;;;23.73;16.42;;;;;;;7.19;100.00;102536.09;6277772;22;20010;-95
2022/10/19 08:15:05;;;;;;;27.88;16.85;;;;;;;7.26;100.00;102543.09;6277397;22;20098;-94
2022/10/19 08:17:34;;;;;;;25.25;16.95;;;;;;;7.37;100.00;102540.34;6276279;22;20003;-95
2022/10/19 08:19:59;;;;;;;22.10;15.32;;;;;;;7.34;100.00;102525.34;6277428;22;20031;-93
2022/10/19 08:22:24;;;;;;;23.17;15.65;;;;;;;7.48;100.00;102531.41;6279954;22;20011;-94
2022/10/19 08:24:49;;;;;;;26.70;16.50;;;;;;;7.50;100.00;102523.41;6278650;22;20039;-93
2022/10/19 08:27:15;;;;;;;20.48;15.57;;;;;;;7.58;100.00;102524.22;6276864;22;20083;-94
2022/10/19 08:29:40;;;;;;;26.20;15.40;;;;;;;7.59;100.00;102517.13;6274362;22;20006;-94
2022/10/19 08:32:06;;;;;;;24.13;15.48;;;;;;;7.74;100.00;102517.84;6276142;22;20349;-94
2022/10/19 08:34:32;;;;;;;27.02;15.45;;;;;;;7.78;100.00;102507.19;6279222;22;20010;-91
2022/10/19 08:36:57;;;;;;;23.80;15.77;;;;;;;7.93;100.00;102512.28;6276727;22;20011;-93
2022/10/19 08:39:22;;;;;;;23.42;15.15;;;;;;;7.91;100.00;102498.19;6274063;22;20382;-94
2022/10/19 08:42:14;;;;;;;27.13;14.52;;;;;;;8.04;100.00;102505.06;6276530;22;20129;-94
2022/10/19 08:44:49;;;;;;;24.23;15.20;;;;;;;8.11;100.00;102505.84;6274358;22;20422;-92
2022/10/19 08:47:35;;;;;;;23.17;14.98;;;;;;;8.14;100.00;102492.53;6271689;22;20322;-89
2022/10/19 08:50:02;;;;;;;20.08;14.50;;;;;;;8.27;100.00;102494.09;6275286;22;20003;-90
2022/10/19 08:52:34;;;;;;;23.58;14.43;;;;;;;8.36;100.00;102491.34;6274874;22;20007;-89
2022/10/19 08:55:03;;;;;;;21.33;14.05;;;;;;;8.45;100.00;102491.22;6282729;22;20007;-94
2022/10/19 08:57:54;;;;;;;24.17;13.85;;;;;;;8.46;100.00;102498.28;6294487;22;19992;-93
2022/10/19 09:00:34;;;;;;;21.23;13.20;;;;;;;8.53;100.00;102485.81;6290689;22;20014;-93
2022/10/19 09:03:22;;;;;;;23.85;13.10;;;;;;;8.65;100.00;102493.56;6295011;22;20011;-94
2022/10/19 09:06:00;;;;;;;23.00;12.20;;;;;;;8.78;100.00;102499.56;6295945;22;19992;-93
2022/10/19 09:08:27;;;;;;;22.10;11.30;;;;;;;8.91;100.00;102490.47;6296241;22;20012;-93
2022/10/19 09:10:53;;;;;;;17.90;12.43;;;;;;;9.00;100.00;102491.19;6283768;22;20061;-94
2022/10/19 09:13:32;;;;;;;19.35;11.40;;;;;;;9.04;100.00;102491.13;6276583;22;20007;-94
2022/10/19 09:15:57;;;;;;;22.13;12.27;;;;;;;9.14;100.00;102494.47;6286345;22;20022;-94
2022/10/19 09:18:28;;;;;;;16.50;12.27;;;;;;;9.28;100.00;102489.78;6279962;22;20000;-92
2022/10/19 09:21:03;;;;;;;17.42;11.43;;;;;;;9.32;100.00;102485.25;6277182;22;20057;-94
2022/10/19 09:23:33;;;;;;;17.17;9.73;;;;;;;9.50;100.00;102497.34;6273990;22;20090;-93
2022/10/19 09:25:59;;;;;;;16.73;9.57;;;;;;;9.64;100.00;102493.47;6275485;22;20007;-93
2022/10/19 09:28:47;;;;;;;16.65;9.25;;;;;;;9.84;100.00;102501.03;6276185;22;20012;-94
2022/10/19 09:31:20;;;;;;;15.55;9.32;;;;;;;9.95;100.00;102487.53;6277179;22;20441;-94
2022/10/19 09:33:51;;;;;;;14.00;8.77;;;;;;;10.10;100.00;102491.63;6276775;22;20446;-93
2022/10/19 09:36:16;;;;;;;13.77;8.85;;;;;;;10.24;99.70;102486.84;6274239;22;20008;-94
2022/10/19 09:38:41;;;;;;;16.23;9.07;;;;;;;10.34;99.52;102480.44;6273992;22;20373;-95
2022/10/19 09:41:20;;;;;;;14.50;8.88;;;;;;;10.51;98.71;102488.00;6274296;22;20030;-94
2022/10/19 09:43:53;;;;;;;13.77;8.13;;;;;;;10.66;95.47;102482.31;6276844;22;19999;-92
2022/10/19 09:46:50;;;;;;;15.48;7.50;;;;;;;10.76;94.57;102477.63;6273532;22;20393;-93
2022/10/19 09:49:37;;;;;;;12.00;7.78;;;;;;;10.85;94.68;102460.53;6276722;22;20000;-94
2022/10/19 09:52:02;;;;;;;14.48;7.90;;;;;;;11.16;96.00;102476.56;6275157;22;20003;-95
2022/10/19 09:54:35;;;;;;;12.77;7.22;;;;;;;11.31;92.72;102462.81;6274472;22;20027;-93
2022/10/19 09:57:02;;;;;;;11.63;7.18;;;;;;;11.43;90.48;102462.47;6276580;22;19995;-92
2022/10/19 09:59:31;;;;;;;15.15;7.47;;;;;;;11.69;90.27;102460.84;6272414;22;20107;-93
2022/10/19 10:02:15;;;;;;;11.85;6.72;;;;;;;12.02;87.37;102455.44;6275036;22;20418;-93
2022/10/19 10:04:40;;;;;;;13.02;7.28;;;;;;;12.50;84.99;102454.75;6272264;22;20003;-92
2022/10/19 10:07:12;;;;;;;18.58;6.50;;;;;;;13.17;79.63;102450.66;6272141;22;20027;-92
2022/10/19 10:09:41;;;;;;;10.00;5.57;;;;;;;14.16;74.50;102447.78;6275838;22;20109;-94
2022/10/19 10:12:07;;;;;;;10.45;5.03;;;;;;;15.24;70.74;102444.09;6274250;22;20348;-94
2022/10/19 10:14:35;;;;;;;12.98;5.50;;;;;;;16.02;65.84;102446.75;6275390;22;20334;-94
2022/10/19 10:17:22;;;;;;;11.05;4.88;;;;;;;16.28;68.28;102450.84;6276753;22;20065;-95
2022/10/19 10:19:56;;;;;;;9.93;4.93;;;;;;;15.96;68.37;102455.06;6275748;22;20329;-94
2022/10/19 10:22:25;;;;;;;11.35;5.07;;;;;;;15.18;67.55;102461.34;6275061;22;20057;-94
2022/10/19 10:24:54;;;;;;;9.20;5.00;;;;;;;14.44;69.24;102448.41;6284503;22;20008;-94
2022/10/19 10:27:35;;;;;;;12.15;5.47;;;;;;;14.16;72.80;102440.59;6295495;22;20041;-94
2022/10/19 10:30:06;;;;;;;14.88;5.53;;;;;;;13.99;72.68;102450.25;6290720;22;20014;-92
2022/10/19 10:32:37;;;;;;;11.25;5.40;;;;;;;14.17;71.22;102446.84;6287598;22;20004;-92
2022/10/19 10:35:06;;;;;;;12.70;5.47;;;;;;;14.79;69.24;102435.34;6275761;22;20133;-93
2022/10/19 10:37:38;;;;;;;11.05;5.25;;;;;;;15.35;66.74;102439.13;6275890;22;20000;-93
2022/10/19 10:40:05;;;;;;;7.47;4.65;;;;;;;16.30;63.42;102440.91;6275192;22;20054;-94
2022/10/19 10:42:42;;;;;;;13.65;4.93;;;;;;;17.40;60.88;102428.94;6278115;22;20003;-91
2022/10/19 10:45:22;;;;;;;11.23;4.32;;;;;;;18.10;57.64;102425.03;6274881;22;20007;-93
2022/10/19 10:47:48;;;;;;;10.27;4.80;;;;;;;18.34;54.99;102413.75;6277718;22;19999;-92
2022/10/19 10:50:33;;;;;;;9.60;4.28;;;;;;;18.43;56.57;102421.28;6276217;22;20018;-94
2022/10/19 10:53:04;;;;;;;9.63;4.78;;;;;;;18.57;53.56;102412.41;6276804;22;20011;-93
2022/10/19 10:55:31;;;;;;;13.38;5.20;;;;;;;19.42;51.91;102417.06;6274752;22;20008;-95
2022/10/19 10:58:12;;;;;;;9.02;4.40;;;;;;;20.60;51.44;102425.59;6279167;22;20197;-94
2022/10/19 11:00:39;;;;;;;11.93;4.28;;;;;;;21.36;44.38;102416.69;6284834;22;20026;-95
2022/10/19 11:03:18;;;;;;;8.82;4.00;;;;;;;22.17;44.47;102418.03;6276267;22;20065;-94
2022/10/19 11:05:50;;;;;;;8.98;4.05;;;;;;;22.70;43.59;102405.81;6279651;22;20015;-94
2022/10/19 11:08:37;;;;;;;8.35;4.03;;;;;;;23.07;47.17;102402.91;6279341;22;20011;-95
2022/10/19 11:11:13;;;;;;;10.38;4.35;;;;;;;23.71;43.34;102400.50;6279340;22;20000;-95
2022/10/19 11:14:07;;;;;;;7.55;4.28;;;;;;;24.34;44.14;102406.13;6277413;22;20601;-94
2022/10/19 11:16:39;;;;;;;10.35;4.47;;;;;;;24.24;38.48;102397.84;6282374;22;20008;-95
2022/10/19 11:19:14;;;;;;;8.90;4.43;;;;;;;24.75;38.75;102399.03;6283315;22;20062;-94
2022/10/19 11:22:12;;;;;;;11.77;4.30;;;;;;;25.33;37.90;102375.72;6277010;22;20014;-94
2022/10/19 11:24:55;;;;;;;9.15;3.97;;;;;;;25.89;40.06;102377.06;6181869;23;20009;-93